Portada
METAR-TAF:

METAR-TAF

Aeropuertos :

Aeropuerto Internacional de Maiquetía Simón Bolívar

Caracas, Venezuela

latitud: 10-36N, longitud: 066-59W, altitud: 43 m

Observación

El informe se hizo hace 43 minutos, a las 03:00 UTC
Viento calma
Temperatura 25°C
Humedad 83%
Presión 1011 hPa
Visibilidad 10 km o más
Nubes dispersas a una altura de 1600 ft

METAR: SVMI 210300Z 00000KT 9999 SCT016 25/22 Q1011

Hora: 23:43 (03:43 UTC)

Pronóstico

El informe se hizo hace 5 horas y 43 minutos, a las 22:00 UTC
Pronóstico válido del 21 a las 00 UTC al 22 a las 00 UTC
Viento 6 kt del este
Visibilidad 10 km o más
Escasas nubes a una altura de 1600 ft
Nubes dispersas a una altura de 7000 ft
Temporalmente
del 21 a las 00 UTC al 21 a las 06 UTC
Viento 3 kt del este-noreste
Visibilidad: 9000 m
Escasas nubes a una altura de 1600 ft
llovizna

TAF: SVMI 202200Z 2100/2200 09006KT 9999 FEW016 SCT070 TX32/17Z TN24/10Z TEMPO 2100/2106 07003KT 9000 DZ FEW016

Observaciones y pronósticos meteorológicos de más de 4000 aeropuertos (mensajes METAR y TAF).

Los puntos amarillos y rojos representan las estaciones disponibles.

Ponga el ratón en el punto deseado para ver el nombre de la estación.

Haga clic para ver las observaciones y los pronósticos meteorológicos.

Para cambiar el mapa : haga clic en los botones verdes con una cruz de color negro para hacer un zoom, en el botón verde con un guión para alejar o en las flechas verdes para mapas adyacentes.


METAR-TAF: